createdAt,value
2018-03-06T00:00:06.543Z,995.08
2018-03-06T00:01:06.458Z,995.11
2018-03-06T00:02:06.549Z,995.11
2018-03-06T00:03:06.503Z,995.11
2018-03-06T00:04:06.529Z,995.13
2018-03-06T00:05:06.543Z,995.11
2018-03-06T00:06:06.583Z,995.12
2018-03-06T00:07:06.595Z,995.07
2018-03-06T00:08:06.620Z,995.12
2018-03-06T00:09:06.620Z,995.04
2018-03-06T00:10:06.641Z,995.09
2018-03-06T00:11:06.670Z,995.08
2018-03-06T00:12:06.694Z,995.08
2018-03-06T00:13:06.734Z,995.07
2018-03-06T00:14:06.737Z,995.08
2018-03-06T00:15:06.748Z,995.06
2018-03-06T00:16:06.769Z,995.01
2018-03-06T00:17:06.791Z,995.02
2018-03-06T00:18:06.806Z,995.05
2018-03-06T00:19:06.850Z,995.04
2018-03-06T00:20:06.854Z,995.00
2018-03-06T00:21:06.871Z,994.99
2018-03-06T00:22:06.898Z,994.97
2018-03-06T00:23:06.910Z,994.95
2018-03-06T00:24:06.941Z,994.94
2018-03-06T00:25:06.947Z,994.93
2018-03-06T00:26:06.975Z,994.95
2018-03-06T00:27:06.997Z,994.93
2018-03-06T00:28:07.015Z,994.97
2018-03-06T00:29:07.038Z,994.94
2018-03-06T00:30:07.053Z,994.91
2018-03-06T00:31:07.092Z,994.88
2018-03-06T00:32:07.090Z,994.87
2018-03-06T00:33:07.114Z,994.87
2018-03-06T00:34:07.132Z,994.82
2018-03-06T00:35:07.158Z,994.84
2018-03-06T00:36:07.178Z,994.84
2018-03-06T00:37:07.192Z,994.79
2018-03-06T00:38:07.220Z,994.79
2018-03-06T00:39:07.253Z,994.79
2018-03-06T00:40:07.256Z,994.80
2018-03-06T00:41:07.273Z,994.77
2018-03-06T00:42:07.315Z,994.73
2018-03-06T00:43:07.321Z,994.74
2018-03-06T00:44:07.338Z,994.71
2018-03-06T00:45:07.368Z,994.72
2018-03-06T00:46:07.381Z,994.72
2018-03-06T00:47:07.407Z,994.68
2018-03-06T00:48:07.425Z,994.65
2018-03-06T00:49:07.436Z,994.66
2018-03-06T00:50:07.474Z,994.68
2018-03-06T00:51:07.490Z,994.66
2018-03-06T00:52:07.502Z,994.68
2018-03-06T00:53:07.523Z,994.68
2018-03-06T00:54:07.538Z,994.63
2018-03-06T00:55:07.573Z,994.57
2018-03-06T00:56:07.585Z,994.55
2018-03-06T00:57:07.600Z,994.57
2018-03-06T00:58:07.636Z,994.56
2018-03-06T00:59:07.645Z,994.54
2018-03-06T01:00:07.678Z,994.53
2018-03-06T01:01:07.684Z,994.53
2018-03-06T01:02:07.703Z,994.52
2018-03-06T01:03:07.737Z,994.51
2018-03-06T01:04:07.736Z,994.51
2018-03-06T01:05:07.763Z,994.52
2018-03-06T01:06:07.795Z,994.48
2018-03-06T01:07:07.801Z,994.47
2018-03-06T01:08:07.839Z,994.49
2018-03-06T01:09:07.850Z,994.47
2018-03-06T01:10:07.864Z,994.46
2018-03-06T01:11:07.880Z,994.46
2018-03-06T01:12:07.898Z,994.46
2018-03-06T01:13:07.927Z,994.48
2018-03-06T01:14:07.959Z,994.48
2018-03-06T01:15:07.957Z,994.45
2018-03-06T01:16:07.976Z,994.46
2018-03-06T01:17:08.001Z,994.43
2018-03-06T01:18:08.037Z,994.48
2018-03-06T01:19:08.039Z,994.45
2018-03-06T01:20:08.065Z,994.44
2018-03-06T01:21:08.084Z,994.43
2018-03-06T01:22:08.113Z,994.39
2018-03-06T01:23:08.118Z,994.41
2018-03-06T01:24:08.148Z,994.41
2018-03-06T01:25:08.166Z,994.43
2018-03-06T01:26:08.191Z,994.39
2018-03-06T01:27:08.209Z,994.38
2018-03-06T01:28:08.221Z,994.37
2018-03-06T01:29:08.239Z,994.42
2018-03-06T01:30:08.270Z,994.38
2018-03-06T01:31:08.285Z,994.34
2018-03-06T01:32:08.298Z,994.34
2018-03-06T01:33:08.339Z,994.33
2018-03-06T01:34:08.352Z,994.32
2018-03-06T01:35:08.360Z,994.30
2018-03-06T01:36:08.376Z,994.30
2018-03-06T01:37:08.396Z,994.26
2018-03-06T01:38:08.439Z,994.28
2018-03-06T01:39:08.446Z,994.29
2018-03-06T01:40:08.473Z,994.28
2018-03-06T01:41:08.480Z,994.26
2018-03-06T01:42:08.529Z,994.25
2018-03-06T01:43:08.516Z,994.23
2018-03-06T01:44:08.543Z,994.21
2018-03-06T01:45:08.577Z,994.22
2018-03-06T01:46:08.597Z,994.22
2018-03-06T01:47:08.600Z,994.22
2018-03-06T01:48:08.615Z,994.19
2018-03-06T01:49:08.645Z,994.21
2018-03-06T01:50:08.658Z,994.20
2018-03-06T01:51:08.736Z,994.20
2018-03-06T01:52:08.695Z,994.25
2018-03-06T01:53:08.720Z,994.27
2018-03-06T01:54:08.749Z,994.23
2018-03-06T01:55:08.762Z,994.25
2018-03-06T01:56:08.780Z,994.22
2018-03-06T01:57:08.801Z,994.19
2018-03-06T01:58:08.830Z,994.17
2018-03-06T01:59:08.835Z,994.17
2018-03-06T02:00:08.854Z,994.17
2018-03-06T02:01:08.910Z,994.15
2018-03-06T02:02:08.913Z,994.16
2018-03-06T02:03:08.920Z,994.15
2018-03-06T02:04:08.930Z,994.17
2018-03-06T02:05:08.958Z,994.11
2018-03-06T02:06:08.981Z,994.14
2018-03-06T02:07:08.994Z,994.12
2018-03-06T02:08:09.010Z,994.12
2018-03-06T02:09:09.031Z,994.10
2018-03-06T02:10:09.070Z,994.09
2018-03-06T02:11:09.079Z,994.07
2018-03-06T02:12:09.090Z,994.07
2018-03-06T02:13:09.116Z,994.04
2018-03-06T02:14:09.156Z,994.05
2018-03-06T02:15:09.158Z,994.02
2018-03-06T02:16:09.172Z,994.02
2018-03-06T02:17:09.192Z,993.99
2018-03-06T02:18:09.226Z,994.03
2018-03-06T02:19:09.231Z,994.01
2018-03-06T02:20:09.247Z,993.98
2018-03-06T02:21:09.274Z,993.98
2018-03-06T02:22:09.287Z,993.99
2018-03-06T02:23:09.317Z,993.95
2018-03-06T02:24:09.339Z,993.93
2018-03-06T02:25:09.352Z,993.93
2018-03-06T02:26:09.392Z,993.92
2018-03-06T02:27:09.417Z,993.94
2018-03-06T02:28:09.417Z,993.90
2018-03-06T02:29:09.435Z,993.94
2018-03-06T02:30:09.451Z,993.85
2018-03-06T02:31:09.478Z,993.86
2018-03-06T02:32:09.489Z,993.86
2018-03-06T02:33:09.508Z,993.83
2018-03-06T02:34:09.551Z,993.85
2018-03-06T02:35:09.552Z,993.82
2018-03-06T02:36:09.580Z,993.79
2018-03-06T02:37:09.587Z,993.78
2018-03-06T02:38:09.628Z,993.73
2018-03-06T02:39:09.637Z,993.72
2018-03-06T02:40:09.649Z,993.74
2018-03-06T02:41:09.663Z,993.72
2018-03-06T02:42:09.707Z,993.72
2018-03-06T02:43:09.720Z,993.70
2018-03-06T02:44:09.729Z,993.66
2018-03-06T02:45:09.745Z,993.66
2018-03-06T02:46:09.764Z,993.68
2018-03-06T02:47:09.815Z,993.67
2018-03-06T02:48:09.801Z,993.66
2018-03-06T02:49:09.820Z,993.66
2018-03-06T02:50:09.852Z,993.67
2018-03-06T02:51:09.869Z,993.66
2018-03-06T02:52:09.881Z,993.64
2018-03-06T02:53:09.904Z,993.65
2018-03-06T02:54:09.922Z,993.61
2018-03-06T02:55:09.945Z,993.63
2018-03-06T02:56:09.957Z,993.64
2018-03-06T02:57:09.980Z,993.63
2018-03-06T02:58:09.999Z,993.67
2018-03-06T02:59:10.024Z,993.69
2018-03-06T03:00:10.036Z,993.70
2018-03-06T03:01:10.064Z,993.69
2018-03-06T03:02:10.080Z,993.70
2018-03-06T03:03:10.110Z,993.71
2018-03-06T03:04:10.124Z,993.68
2018-03-06T03:05:10.143Z,993.69
2018-03-06T03:06:10.157Z,993.67
2018-03-06T03:07:10.184Z,993.67
2018-03-06T03:08:10.219Z,993.66
2018-03-06T03:09:10.220Z,993.67
2018-03-06T03:10:10.239Z,993.63
2018-03-06T03:11:10.258Z,993.62
2018-03-06T03:12:10.281Z,993.63
2018-03-06T03:13:10.293Z,993.66
2018-03-06T03:14:10.312Z,993.66
2018-03-06T03:15:10.337Z,993.69
2018-03-06T03:16:10.353Z,993.64
2018-03-06T03:17:10.375Z,993.68
2018-03-06T03:18:10.399Z,993.63
2018-03-06T03:19:10.412Z,993.65
2018-03-06T03:20:10.439Z,993.67
2018-03-06T03:21:10.449Z,993.63
2018-03-06T03:22:10.516Z,993.64
2018-03-06T03:23:10.508Z,993.68
2018-03-06T03:24:10.515Z,993.66
2018-03-06T03:25:10.526Z,993.68
2018-03-06T03:26:10.551Z,993.65
2018-03-06T03:27:10.569Z,993.62
2018-03-06T03:28:10.589Z,993.64
2018-03-06T03:29:10.606Z,993.63
2018-03-06T03:30:10.633Z,993.61
2018-03-06T03:31:10.658Z,993.62
2018-03-06T03:32:10.674Z,993.60
2018-03-06T03:33:10.786Z,993.58
2018-03-06T03:34:10.707Z,993.57
2018-03-06T03:35:10.765Z,993.56
2018-03-06T03:36:10.748Z,993.56
2018-03-06T03:37:10.765Z,993.58
2018-03-06T03:38:10.788Z,993.57
2018-03-06T03:39:10.802Z,993.53
2018-03-06T03:40:10.839Z,993.49
2018-03-06T03:41:10.844Z,993.52
2018-03-06T03:42:10.865Z,993.51
2018-03-06T03:43:10.894Z,993.45
2018-03-06T03:44:11.500Z,993.46
2018-03-06T03:45:10.928Z,993.46
2018-03-06T03:46:10.949Z,993.43
2018-03-06T03:47:10.960Z,993.40
2018-03-06T03:48:11.001Z,993.45
2018-03-06T03:49:11.005Z,993.39
2018-03-06T03:50:11.020Z,993.40
2018-03-06T03:51:11.039Z,993.41
2018-03-06T03:52:11.086Z,993.35
2018-03-06T03:53:11.074Z,993.34
2018-03-06T03:54:11.101Z,993.36
2018-03-06T03:55:11.115Z,993.35
2018-03-06T03:56:11.143Z,993.33
2018-03-06T03:57:11.161Z,993.33
2018-03-06T03:58:11.174Z,993.33
2018-03-06T03:59:11.204Z,993.35
2018-03-06T04:00:11.215Z,993.33
2018-03-06T04:01:11.234Z,993.34
2018-03-06T04:02:11.252Z,993.36
2018-03-06T04:03:11.271Z,993.35
2018-03-06T04:04:11.299Z,993.34
2018-03-06T04:05:11.325Z,993.29
2018-03-06T04:06:11.338Z,993.32
2018-03-06T04:07:11.351Z,993.31
2018-03-06T04:08:11.371Z,993.28
2018-03-06T04:09:11.387Z,993.28
2018-03-06T04:10:11.410Z,993.29
2018-03-06T04:11:11.423Z,993.26
2018-03-06T04:12:11.448Z,993.25
2018-03-06T04:13:11.482Z,993.26
2018-03-06T04:14:11.498Z,993.25
2018-03-06T04:15:11.513Z,993.29
2018-03-06T04:16:11.526Z,993.30
2018-03-06T04:17:11.579Z,993.28
2018-03-06T04:18:11.573Z,993.29
2018-03-06T04:19:11.587Z,993.27
2018-03-06T04:20:11.612Z,993.27
2018-03-06T04:21:11.640Z,993.27
2018-03-06T04:22:11.645Z,993.29
2018-03-06T04:23:11.658Z,993.21
2018-03-06T04:24:11.685Z,993.25
2018-03-06T04:25:11.713Z,993.27
2018-03-06T04:26:11.716Z,993.25
2018-03-06T04:27:11.740Z,993.24
2018-03-06T04:28:11.761Z,993.22
2018-03-06T04:29:11.785Z,993.21
2018-03-06T04:30:11.809Z,993.25
2018-03-06T04:31:11.823Z,993.19
2018-03-06T04:32:11.836Z,993.23
2018-03-06T04:33:11.860Z,993.15
2018-03-06T04:34:11.875Z,993.18
2018-03-06T04:35:11.944Z,993.18
2018-03-06T04:36:11.916Z,993.20
2018-03-06T04:37:11.938Z,993.16
2018-03-06T04:38:11.960Z,993.14
2018-03-06T04:39:11.974Z,993.12
2018-03-06T04:40:11.995Z,993.15
2018-03-06T04:41:12.009Z,993.13
2018-03-06T04:42:12.036Z,993.13
2018-03-06T04:43:12.049Z,993.12
2018-03-06T04:44:12.072Z,993.10
2018-03-06T04:45:12.087Z,993.13
2018-03-06T04:46:12.147Z,993.12
2018-03-06T04:47:12.132Z,993.12
2018-03-06T04:48:12.148Z,993.13
2018-03-06T04:49:12.180Z,993.10
2018-03-06T04:50:12.188Z,993.10
2018-03-06T04:51:12.204Z,993.06
2018-03-06T04:52:12.227Z,993.12
2018-03-06T04:53:12.245Z,993.10
2018-03-06T04:54:12.270Z,993.08
2018-03-06T04:55:12.287Z,993.12
2018-03-06T04:56:12.300Z,993.09
2018-03-06T04:57:12.337Z,993.13
2018-03-06T04:58:12.345Z,993.09
2018-03-06T04:59:12.362Z,993.09
2018-03-06T05:00:12.389Z,993.10
2018-03-06T05:01:12.403Z,993.10
2018-03-06T05:02:12.461Z,993.07
2018-03-06T05:03:12.439Z,993.13
2018-03-06T05:04:12.470Z,993.09
2018-03-06T05:05:12.476Z,993.08
2018-03-06T05:06:12.548Z,993.09
2018-03-06T05:07:12.519Z,993.09
2018-03-06T05:08:12.530Z,993.08
2018-03-06T05:09:12.551Z,993.03
2018-03-06T05:10:12.570Z,993.03
2018-03-06T05:11:12.595Z,993.03
2018-03-06T05:12:12.628Z,993.02
2018-03-06T05:13:12.625Z,993.02
2018-03-06T05:14:12.649Z,992.95
2018-03-06T05:15:12.673Z,992.97
2018-03-06T05:16:12.685Z,992.96
2018-03-06T05:17:12.710Z,992.95
2018-03-06T05:18:12.727Z,992.94
2018-03-06T05:19:12.773Z,992.93
2018-03-06T05:20:12.766Z,992.88
2018-03-06T05:21:12.826Z,992.92
2018-03-06T05:22:12.802Z,992.92
2018-03-06T05:23:12.836Z,992.92
2018-03-06T05:24:12.847Z,992.92
2018-03-06T05:25:12.861Z,992.93
2018-03-06T05:26:12.878Z,992.94
2018-03-06T05:27:12.895Z,992.96
2018-03-06T05:28:12.920Z,992.96
2018-03-06T05:29:12.939Z,992.97
2018-03-06T05:30:12.990Z,992.95
2018-03-06T05:31:12.975Z,992.95
2018-03-06T05:32:12.998Z,992.88
2018-03-06T05:33:13.013Z,992.90
2018-03-06T05:34:13.037Z,992.92
2018-03-06T05:35:13.149Z,992.89
2018-03-06T05:36:13.097Z,992.90
2018-03-06T05:37:13.091Z,992.87
2018-03-06T05:38:13.114Z,992.88
2018-03-06T05:39:13.135Z,992.89
2018-03-06T05:40:13.144Z,992.86
2018-03-06T05:41:13.177Z,992.89
2018-03-06T05:42:13.183Z,992.87
2018-03-06T05:43:13.931Z,992.88
2018-03-06T05:44:13.242Z,992.88
2018-03-06T05:45:13.247Z,992.90
2018-03-06T05:46:13.264Z,992.87
2018-03-06T05:47:13.281Z,992.90
2018-03-06T05:48:13.301Z,992.89
2018-03-06T05:49:13.322Z,992.86
2018-03-06T05:50:13.376Z,992.84
2018-03-06T05:51:13.363Z,992.84
2018-03-06T05:52:13.376Z,992.82
2018-03-06T05:53:13.397Z,992.84
2018-03-06T05:54:13.414Z,992.87
2018-03-06T05:55:13.438Z,992.86
2018-03-06T05:56:13.454Z,992.85
2018-03-06T05:57:13.468Z,992.86
2018-03-06T05:58:13.498Z,992.86
2018-03-06T05:59:13.532Z,992.87
2018-03-06T06:00:13.536Z,992.82
2018-03-06T06:01:13.561Z,992.88
2018-03-06T06:02:13.573Z,992.85
2018-03-06T06:03:13.609Z,992.85
2018-03-06T06:04:13.606Z,992.87
2018-03-06T06:05:13.624Z,992.85
2018-03-06T06:06:13.649Z,992.90
2018-03-06T06:07:13.676Z,992.89
2018-03-06T06:08:13.683Z,992.91
2018-03-06T06:09:13.705Z,992.91
2018-03-06T06:10:13.753Z,992.93
2018-03-06T06:11:13.736Z,992.92
2018-03-06T06:12:13.766Z,992.95
2018-03-06T06:13:13.785Z,992.93
2018-03-06T06:14:13.802Z,992.98
2018-03-06T06:15:13.826Z,992.99
2018-03-06T06:16:13.831Z,993.00
2018-03-06T06:17:13.862Z,992.98
2018-03-06T06:18:13.888Z,993.01
2018-03-06T06:19:13.904Z,992.99
2018-03-06T06:20:13.910Z,992.98
2018-03-06T06:21:13.930Z,992.96
2018-03-06T06:22:13.947Z,992.96
2018-03-06T06:23:13.974Z,993.01
2018-03-06T06:24:14.016Z,993.02
2018-03-06T06:25:14.007Z,993.04
2018-03-06T06:26:14.034Z,993.03
2018-03-06T06:27:14.048Z,993.03
2018-03-06T06:28:14.074Z,993.02
2018-03-06T06:29:14.090Z,993.06
2018-03-06T06:30:14.109Z,993.03
2018-03-06T06:31:14.120Z,993.08
2018-03-06T06:32:14.142Z,993.05
2018-03-06T06:33:14.153Z,993.05
2018-03-06T06:34:14.179Z,993.06
2018-03-06T06:35:14.207Z,993.04
2018-03-06T06:36:14.220Z,993.07
2018-03-06T06:37:14.246Z,993.01
2018-03-06T06:38:14.268Z,993.06
2018-03-06T06:39:14.323Z,993.06
2018-03-06T06:40:14.303Z,993.03
2018-03-06T06:41:14.316Z,993.03
2018-03-06T06:42:14.345Z,993.04
2018-03-06T06:43:14.354Z,993.03
2018-03-06T06:44:14.928Z,993.03
2018-03-06T06:45:14.401Z,993.00
2018-03-06T06:46:14.474Z,993.02
2018-03-06T06:47:14.434Z,993.03
2018-03-06T06:48:14.448Z,993.02
2018-03-06T06:49:14.473Z,993.04
2018-03-06T06:50:14.485Z,993.03
2018-03-06T06:51:14.511Z,993.04
2018-03-06T06:52:14.545Z,993.02
2018-03-06T06:53:14.547Z,992.99
2018-03-06T06:54:14.565Z,993.02
2018-03-06T06:55:14.583Z,993.00
2018-03-06T06:56:14.603Z,992.97
2018-03-06T06:57:14.650Z,992.95
2018-03-06T06:58:14.641Z,992.96
2018-03-06T06:59:14.672Z,992.95
2018-03-06T07:00:14.681Z,992.96
2018-03-06T07:01:14.725Z,992.94
2018-03-06T07:02:14.721Z,992.95
2018-03-06T07:03:14.738Z,992.97
2018-03-06T07:04:14.758Z,992.97
2018-03-06T07:05:14.779Z,992.95
2018-03-06T07:06:14.796Z,992.98
2018-03-06T07:07:14.852Z,992.93
2018-03-06T07:08:14.841Z,992.91
2018-03-06T07:09:14.870Z,992.88
2018-03-06T07:10:14.914Z,992.90
2018-03-06T07:11:14.910Z,992.91
2018-03-06T07:12:14.927Z,992.90
2018-03-06T07:13:14.979Z,992.93
2018-03-06T07:14:14.956Z,992.91
2018-03-06T07:15:14.974Z,992.91
2018-03-06T07:16:15.001Z,992.91
2018-03-06T07:17:15.009Z,992.93
2018-03-06T07:18:15.035Z,992.97
2018-03-06T07:19:15.058Z,992.94
2018-03-06T07:20:15.075Z,992.97
2018-03-06T07:21:15.168Z,992.96
2018-03-06T07:22:15.134Z,992.98
2018-03-06T07:23:15.179Z,992.94
2018-03-06T07:24:15.152Z,992.94
2018-03-06T07:25:15.193Z,992.93
2018-03-06T07:26:15.185Z,992.96
2018-03-06T07:27:15.210Z,993.00
2018-03-06T07:28:15.247Z,993.00
2018-03-06T07:29:15.248Z,992.99
2018-03-06T07:30:15.304Z,993.01
2018-03-06T07:31:15.286Z,993.01
2018-03-06T07:32:15.314Z,993.02
2018-03-06T07:33:15.350Z,993.03
2018-03-06T07:34:15.351Z,993.04
2018-03-06T07:35:15.365Z,993.01
2018-03-06T07:36:15.444Z,993.02
2018-03-06T07:37:15.409Z,993.06
2018-03-06T07:38:15.440Z,993.06
2018-03-06T07:39:15.446Z,993.06
2018-03-06T07:40:15.467Z,993.06
2018-03-06T07:41:15.490Z,993.06
2018-03-06T07:42:15.517Z,993.05
2018-03-06T07:43:15.535Z,993.07
2018-03-06T07:44:15.553Z,993.07
2018-03-06T07:45:15.561Z,993.03
2018-03-06T07:46:15.598Z,993.03
2018-03-06T07:47:15.606Z,993.02
2018-03-06T07:48:15.625Z,993.05
2018-03-06T07:49:15.650Z,993.05
2018-03-06T07:50:15.670Z,993.02
2018-03-06T07:51:15.688Z,993.02
2018-03-06T07:52:15.711Z,993.01
2018-03-06T07:53:15.721Z,993.01
2018-03-06T07:54:15.755Z,992.99
2018-03-06T07:55:15.761Z,992.96
2018-03-06T07:56:15.782Z,992.96
2018-03-06T07:57:15.814Z,992.93
2018-03-06T07:58:15.834Z,992.94
2018-03-06T07:59:15.874Z,992.93
2018-03-06T08:00:15.870Z,992.96
2018-03-06T08:01:15.907Z,992.96
2018-03-06T08:02:15.928Z,992.94
2018-03-06T08:03:15.924Z,992.97
2018-03-06T08:04:15.957Z,992.95
2018-03-06T08:05:15.974Z,992.96
2018-03-06T08:06:15.991Z,992.93
2018-03-06T08:07:16.006Z,992.95
2018-03-06T08:08:16.033Z,992.91
2018-03-06T08:09:16.058Z,992.85
2018-03-06T08:10:16.074Z,992.88
2018-03-06T08:11:16.090Z,992.86
2018-03-06T08:12:16.123Z,992.84
2018-03-06T08:13:16.136Z,992.87
2018-03-06T08:14:16.151Z,992.88
2018-03-06T08:15:16.164Z,992.87
2018-03-06T08:16:16.196Z,992.89
2018-03-06T08:17:16.206Z,992.84
2018-03-06T08:18:16.235Z,992.85
2018-03-06T08:19:16.250Z,992.90
2018-03-06T08:20:16.274Z,992.86
2018-03-06T08:21:16.291Z,992.82
2018-03-06T08:22:16.316Z,992.84
2018-03-06T08:23:16.347Z,992.84
2018-03-06T08:24:16.355Z,992.83
2018-03-06T08:25:16.391Z,992.85
2018-03-06T08:26:16.401Z,992.85
2018-03-06T08:27:16.419Z,992.86
2018-03-06T08:28:16.454Z,992.81
2018-03-06T08:29:16.453Z,992.87
2018-03-06T08:30:16.505Z,992.88
2018-03-06T08:31:16.516Z,992.89
2018-03-06T08:32:16.545Z,992.85
2018-03-06T08:33:16.535Z,992.88
2018-03-06T08:34:16.561Z,992.87
2018-03-06T08:35:16.600Z,992.85
2018-03-06T08:36:16.598Z,992.85
2018-03-06T08:37:16.621Z,992.83
2018-03-06T08:38:16.642Z,992.82
2018-03-06T08:39:16.665Z,992.82
2018-03-06T08:40:16.723Z,992.81
2018-03-06T08:41:16.705Z,992.83
2018-03-06T08:42:16.734Z,992.81
2018-03-06T08:43:16.746Z,992.82
2018-03-06T08:44:16.775Z,992.84
2018-03-06T08:45:16.788Z,992.83
2018-03-06T08:46:16.815Z,992.87
2018-03-06T08:47:16.830Z,992.91
2018-03-06T08:48:16.859Z,992.90
2018-03-06T08:49:16.876Z,992.87
2018-03-06T08:50:16.909Z,992.90
2018-03-06T08:51:16.919Z,992.87
2018-03-06T08:52:16.980Z,992.90
2018-03-06T08:53:16.964Z,992.88
2018-03-06T08:54:16.978Z,992.88
2018-03-06T08:55:17.001Z,992.88
2018-03-06T08:56:17.024Z,992.88
2018-03-06T08:57:17.057Z,992.87
2018-03-06T08:58:17.073Z,992.88
2018-03-06T08:59:17.088Z,992.85
2018-03-06T09:00:17.118Z,992.86
2018-03-06T09:01:17.162Z,992.85
2018-03-06T09:02:17.165Z,992.84
2018-03-06T09:03:17.237Z,992.84
2018-03-06T09:04:17.191Z,992.84
2018-03-06T09:05:17.219Z,992.84
2018-03-06T09:06:17.241Z,992.82
2018-03-06T09:07:17.269Z,992.85
2018-03-06T09:08:17.284Z,992.85
2018-03-06T09:09:17.312Z,992.86
2018-03-06T09:10:17.329Z,992.83
2018-03-06T09:11:17.342Z,992.82
2018-03-06T09:12:17.379Z,992.84
2018-03-06T09:13:17.388Z,992.87
2018-03-06T09:14:17.428Z,992.84
2018-03-06T09:15:17.429Z,992.83
2018-03-06T09:16:17.460Z,992.86
2018-03-06T09:17:17.529Z,992.81
2018-03-06T09:18:17.506Z,992.82
2018-03-06T09:19:17.527Z,992.85
2018-03-06T09:20:17.538Z,992.85
2018-03-06T09:21:17.562Z,992.83
2018-03-06T09:22:17.583Z,992.80
2018-03-06T09:23:17.618Z,992.80
2018-03-06T09:24:17.626Z,992.81
2018-03-06T09:25:17.651Z,992.80
2018-03-06T09:26:17.677Z,992.82
2018-03-06T09:27:17.691Z,992.79
2018-03-06T09:28:17.714Z,992.81
2018-03-06T09:29:17.741Z,992.83
2018-03-06T09:30:17.764Z,992.78
2018-03-06T09:31:17.782Z,992.81
2018-03-06T09:32:17.799Z,992.80
2018-03-06T09:33:17.839Z,992.78
2018-03-06T09:34:17.846Z,992.75
2018-03-06T09:35:17.879Z,992.78
2018-03-06T09:36:17.889Z,992.76
2018-03-06T09:37:17.978Z,992.78
2018-03-06T09:38:17.933Z,992.70
2018-03-06T09:39:17.962Z,992.75
2018-03-06T09:40:17.988Z,992.73
2018-03-06T09:41:18.004Z,992.70
2018-03-06T09:42:18.031Z,992.68
2018-03-06T09:43:18.051Z,992.73
2018-03-06T09:44:18.082Z,992.69
2018-03-06T09:45:18.097Z,992.66
2018-03-06T09:46:18.122Z,992.70
2018-03-06T09:47:18.138Z,992.68
2018-03-06T09:48:18.159Z,992.67
2018-03-06T09:49:18.187Z,992.65
2018-03-06T09:50:18.209Z,992.66
2018-03-06T09:51:18.229Z,992.68
2018-03-06T09:52:18.257Z,992.68
2018-03-06T09:53:18.279Z,992.66
2018-03-06T09:54:18.295Z,992.60
2018-03-06T09:55:18.320Z,992.62
2018-03-06T09:56:18.335Z,992.64
2018-03-06T09:57:18.364Z,992.61
2018-03-06T09:58:18.400Z,992.64
2018-03-06T09:59:18.414Z,992.59
2018-03-06T10:00:18.431Z,992.63
2018-03-06T10:01:18.457Z,992.62
2018-03-06T10:02:18.493Z,992.60
2018-03-06T10:03:18.494Z,992.61
2018-03-06T10:04:18.536Z,992.60
2018-03-06T10:05:18.542Z,992.58
2018-03-06T10:06:18.581Z,992.63
2018-03-06T10:07:18.588Z,992.60
2018-03-06T10:08:18.609Z,992.58
2018-03-06T10:09:18.643Z,992.60
2018-03-06T10:10:18.658Z,992.59
2018-03-06T10:11:18.680Z,992.61
2018-03-06T10:12:18.728Z,992.58
2018-03-06T10:13:18.738Z,992.60
2018-03-06T10:14:18.754Z,992.54
2018-03-06T10:15:18.780Z,992.54
2018-03-06T10:16:18.837Z,992.55
2018-03-06T10:17:18.827Z,992.53
2018-03-06T10:18:18.847Z,992.53
2018-03-06T10:19:18.869Z,992.51
2018-03-06T10:20:18.898Z,992.48
2018-03-06T10:21:18.927Z,992.49
2018-03-06T10:22:18.952Z,992.46
2018-03-06T10:23:18.967Z,992.46
2018-03-06T10:24:18.999Z,992.45
2018-03-06T10:25:19.024Z,992.45
2018-03-06T10:26:19.064Z,992.45
2018-03-06T10:27:19.073Z,992.48
2018-03-06T10:28:19.084Z,992.42
2018-03-06T10:29:19.108Z,992.40
2018-03-06T10:30:19.134Z,992.39
2018-03-06T10:31:19.170Z,992.37
2018-03-06T10:32:19.184Z,992.35
2018-03-06T10:33:19.237Z,992.32
2018-03-06T10:34:19.225Z,992.32
2018-03-06T10:35:19.249Z,992.31
2018-03-06T10:36:19.274Z,992.29
2018-03-06T10:37:19.309Z,992.26
2018-03-06T10:38:19.322Z,992.28
2018-03-06T10:39:19.356Z,992.22
2018-03-06T10:40:19.373Z,992.23
2018-03-06T10:41:19.395Z,992.22
2018-03-06T10:42:19.418Z,992.24
2018-03-06T10:43:19.454Z,992.21
2018-03-06T10:44:19.471Z,992.20
2018-03-06T10:45:19.511Z,992.22
2018-03-06T10:46:19.525Z,992.22
2018-03-06T10:47:19.545Z,992.22
2018-03-06T10:48:19.574Z,992.20
2018-03-06T10:49:19.607Z,992.17
2018-03-06T10:50:19.611Z,992.21
2018-03-06T10:51:19.631Z,992.19
2018-03-06T10:52:19.659Z,992.20
2018-03-06T10:53:19.678Z,992.17
2018-03-06T10:54:19.706Z,992.19
2018-03-06T10:55:19.728Z,992.19
2018-03-06T10:56:19.765Z,992.11
2018-03-06T10:57:19.774Z,992.13
2018-03-06T10:58:19.808Z,992.14
2018-03-06T10:59:19.834Z,992.12
2018-03-06T11:00:19.851Z,992.09
2018-03-06T11:01:19.895Z,992.11
2018-03-06T11:02:19.892Z,992.09
2018-03-06T11:03:19.917Z,992.09
2018-03-06T11:04:19.949Z,992.11
2018-03-06T11:05:19.971Z,992.08
2018-03-06T11:06:20.004Z,992.09
2018-03-06T11:07:20.018Z,992.09
2018-03-06T11:08:20.059Z,992.06
2018-03-06T11:09:20.063Z,992.07
2018-03-06T11:10:20.097Z,992.03
2018-03-06T11:11:20.167Z,992.05
2018-03-06T11:12:20.146Z,992.05
2018-03-06T11:13:20.165Z,992.02
2018-03-06T11:14:20.193Z,992.05
2018-03-06T11:15:20.211Z,992.03
2018-03-06T11:16:20.242Z,991.99
2018-03-06T11:17:20.261Z,991.97
2018-03-06T11:18:20.296Z,991.97
2018-03-06T11:19:20.320Z,991.97
2018-03-06T11:20:20.343Z,991.96
2018-03-06T11:21:20.370Z,991.95
2018-03-06T11:22:20.390Z,991.91
2018-03-06T11:23:20.412Z,991.92
2018-03-06T11:24:20.438Z,991.92
2018-03-06T11:25:20.472Z,991.88
2018-03-06T11:26:20.490Z,991.89
2018-03-06T11:27:20.509Z,991.88
2018-03-06T11:28:20.538Z,991.86
2018-03-06T11:29:20.563Z,991.88
2018-03-06T11:30:20.584Z,991.85
2018-03-06T11:31:20.625Z,991.82
2018-03-06T11:32:20.723Z,991.83
2018-03-06T11:33:20.669Z,991.81
2018-03-06T11:34:21.449Z,991.74
2018-03-06T11:35:20.716Z,991.78
2018-03-06T11:36:20.746Z,991.76
2018-03-06T11:37:20.771Z,991.76
2018-03-06T11:38:20.787Z,991.79
2018-03-06T11:39:20.814Z,991.75
2018-03-06T11:40:20.846Z,991.72
2018-03-06T11:41:20.869Z,991.73
2018-03-06T11:42:20.938Z,991.70
2018-03-06T11:43:21.011Z,991.73
2018-03-06T11:44:20.948Z,991.69
2018-03-06T11:45:20.970Z,991.68
2018-03-06T11:46:20.986Z,991.69
2018-03-06T11:47:21.009Z,991.65
2018-03-06T11:48:21.042Z,991.64
2018-03-06T11:49:21.069Z,991.62
2018-03-06T11:50:21.086Z,991.63
2018-03-06T11:51:21.117Z,991.60
2018-03-06T11:52:21.143Z,991.62
2018-03-06T11:53:21.167Z,991.58
2018-03-06T11:54:21.199Z,991.60
2018-03-06T11:55:21.222Z,991.58
2018-03-06T11:56:21.285Z,991.57
2018-03-06T11:57:21.262Z,991.56
2018-03-06T11:58:21.289Z,991.56
2018-03-06T11:59:21.312Z,991.54
2018-03-06T12:00:21.349Z,991.55
2018-03-06T12:01:21.355Z,991.56
2018-03-06T12:02:21.388Z,991.51
2018-03-06T12:03:21.407Z,991.52
2018-03-06T12:04:21.434Z,991.50
2018-03-06T12:05:21.470Z,991.46
2018-03-06T12:06:21.489Z,991.44
2018-03-06T12:07:21.519Z,991.44
2018-03-06T12:08:21.535Z,991.45
2018-03-06T12:09:21.561Z,991.40
2018-03-06T12:10:21.586Z,991.40
2018-03-06T12:11:21.616Z,991.36
2018-03-06T12:12:21.639Z,991.37
2018-03-06T12:13:21.657Z,991.40
2018-03-06T12:14:21.692Z,991.38
2018-03-06T12:15:21.704Z,991.38
2018-03-06T12:16:21.730Z,991.39
2018-03-06T12:17:21.772Z,991.35
2018-03-06T12:18:21.785Z,991.34
2018-03-06T12:19:21.814Z,991.33
2018-03-06T12:20:21.830Z,991.27
2018-03-06T12:21:21.853Z,991.33
2018-03-06T12:22:21.881Z,991.33
2018-03-06T12:23:21.914Z,991.33
2018-03-06T12:24:21.929Z,991.29
2018-03-06T12:25:21.962Z,991.30
2018-03-06T12:26:21.981Z,991.22
2018-03-06T12:27:22.009Z,991.24
2018-03-06T12:28:22.033Z,991.20